sensor_id;sensor_type;location;lat;lon;timestamp;P1;durP1;ratioP1;P2;durP2;ratioP2
42384;SDS011;28042;43.986;22.860;2022-10-31T00:00:40;13.98;;;7.22;;
42384;SDS011;28042;43.986;22.860;2022-10-31T00:03:06;11.27;;;6.93;;
42384;SDS011;28042;43.986;22.860;2022-10-31T00:05:31;14.95;;;7.18;;
42384;SDS011;28042;43.986;22.860;2022-10-31T00:07:57;14.63;;;6.90;;
42384;SDS011;28042;43.986;22.860;2022-10-31T00:10:22;12.82;;;6.88;;
42384;SDS011;28042;43.986;22.860;2022-10-31T00:12:48;13.38;;;7.63;;
42384;SDS011;28042;43.986;22.860;2022-10-31T00:15:13;14.55;;;7.53;;
42384;SDS011;28042;43.986;22.860;2022-10-31T00:17:39;17.83;;;7.55;;
42384;SDS011;28042;43.986;22.860;2022-10-31T00:20:05;16.40;;;7.68;;
42384;SDS011;28042;43.986;22.860;2022-10-31T00:22:31;17.80;;;7.80;;
42384;SDS011;28042;43.986;22.860;2022-10-31T00:24:56;15.48;;;7.65;;
42384;SDS011;28042;43.986;22.860;2022-10-31T00:27:22;12.90;;;7.38;;
42384;SDS011;28042;43.986;22.860;2022-10-31T00:29:47;14.07;;;7.60;;
42384;SDS011;28042;43.986;22.860;2022-10-31T00:32:12;14.02;;;7.78;;
42384;SDS011;28042;43.986;22.860;2022-10-31T00:34:38;16.05;;;8.00;;
42384;SDS011;28042;43.986;22.860;2022-10-31T00:37:03;15.95;;;7.82;;
42384;SDS011;28042;43.986;22.860;2022-10-31T00:39:29;15.30;;;8.48;;
42384;SDS011;28042;43.986;22.860;2022-10-31T00:41:54;14.80;;;8.85;;
42384;SDS011;28042;43.986;22.860;2022-10-31T00:44:20;17.67;;;8.07;;
42384;SDS011;28042;43.986;22.860;2022-10-31T00:46:45;14.95;;;7.68;;
42384;SDS011;28042;43.986;22.860;2022-10-31T00:49:11;12.98;;;7.25;;
42384;SDS011;28042;43.986;22.860;2022-10-31T00:51:37;17.90;;;8.15;;
42384;SDS011;28042;43.986;22.860;2022-10-31T00:54:02;16.42;;;8.35;;
42384;SDS011;28042;43.986;22.860;2022-10-31T00:56:28;14.40;;;8.30;;
42384;SDS011;28042;43.986;22.860;2022-10-31T00:58:54;15.65;;;7.38;;
42384;SDS011;28042;43.986;22.860;2022-10-31T01:01:19;16.60;;;8.40;;
42384;SDS011;28042;43.986;22.860;2022-10-31T01:03:45;18.98;;;7.88;;
42384;SDS011;28042;43.986;22.860;2022-10-31T01:06:11;11.98;;;7.20;;
42384;SDS011;28042;43.986;22.860;2022-10-31T01:08:38;17.85;;;8.50;;
42384;SDS011;28042;43.986;22.860;2022-10-31T01:11:08;16.55;;;7.82;;
42384;SDS011;28042;43.986;22.860;2022-10-31T01:13:37;14.50;;;8.07;;
42384;SDS011;28042;43.986;22.860;2022-10-31T01:16:03;19.27;;;8.02;;
42384;SDS011;28042;43.986;22.860;2022-10-31T01:18:30;25.25;;;8.65;;
42384;SDS011;28042;43.986;22.860;2022-10-31T01:20:57;17.05;;;8.60;;
42384;SDS011;28042;43.986;22.860;2022-10-31T01:23:27;13.73;;;7.82;;
42384;SDS011;28042;43.986;22.860;2022-10-31T01:26:04;21.17;;;8.50;;
42384;SDS011;28042;43.986;22.860;2022-10-31T01:28:32;25.45;;;8.25;;
42384;SDS011;28042;43.986;22.860;2022-10-31T01:33:26;20.50;;;8.35;;
42384;SDS011;28042;43.986;22.860;2022-10-31T01:35:52;12.85;;;7.35;;
42384;SDS011;28042;43.986;22.860;2022-10-31T01:38:17;14.65;;;9.40;;
42384;SDS011;28042;43.986;22.860;2022-10-31T01:40:42;17.73;;;9.98;;
42384;SDS011;28042;43.986;22.860;2022-10-31T01:43:12;19.90;;;10.27;;
42384;SDS011;28042;43.986;22.860;2022-10-31T01:45:38;19.80;;;9.52;;
42384;SDS011;28042;43.986;22.860;2022-10-31T01:48:04;22.92;;;10.02;;
42384;SDS011;28042;43.986;22.860;2022-10-31T01:50:32;24.67;;;10.50;;
42384;SDS011;28042;43.986;22.860;2022-10-31T01:53:01;25.20;;;10.07;;
42384;SDS011;28042;43.986;22.860;2022-10-31T01:55:28;28.30;;;10.10;;
42384;SDS011;28042;43.986;22.860;2022-10-31T01:57:59;20.60;;;9.48;;
42384;SDS011;28042;43.986;22.860;2022-10-31T02:00:29;25.63;;;9.85;;
42384;SDS011;28042;43.986;22.860;2022-10-31T02:02:55;15.35;;;9.30;;
42384;SDS011;28042;43.986;22.860;2022-10-31T02:05:25;16.98;;;8.50;;
42384;SDS011;28042;43.986;22.860;2022-10-31T02:08:03;21.23;;;10.10;;
42384;SDS011;28042;43.986;22.860;2022-10-31T02:10:32;17.85;;;10.43;;
42384;SDS011;28042;43.986;22.860;2022-10-31T02:13:00;19.67;;;11.20;;
42384;SDS011;28042;43.986;22.860;2022-10-31T02:15:28;23.58;;;10.63;;
42384;SDS011;28042;43.986;22.860;2022-10-31T02:17:54;18.80;;;10.70;;
42384;SDS011;28042;43.986;22.860;2022-10-31T02:20:20;20.55;;;11.32;;
42384;SDS011;28042;43.986;22.860;2022-10-31T02:30:40;25.40;;;13.57;;
42384;SDS011;28042;43.986;22.860;2022-10-31T02:33:15;25.02;;;12.45;;
42384;SDS011;28042;43.986;22.860;2022-10-31T02:41:12;22.02;;;12.55;;
42384;SDS011;28042;43.986;22.860;2022-10-31T02:46:19;19.92;;;10.10;;
42384;SDS011;28042;43.986;22.860;2022-10-31T02:49:05;18.17;;;10.52;;
42384;SDS011;28042;43.986;22.860;2022-10-31T02:51:35;16.63;;;9.48;;
42384;SDS011;28042;43.986;22.860;2022-10-31T02:54:01;17.02;;;10.48;;
42384;SDS011;28042;43.986;22.860;2022-10-31T02:56:26;13.80;;;8.60;;
42384;SDS011;28042;43.986;22.860;2022-10-31T02:58:53;10.88;;;6.20;;
42384;SDS011;28042;43.986;22.860;2022-10-31T03:07:29;21.65;;;8.55;;
42384;SDS011;28042;43.986;22.860;2022-10-31T03:12:58;17.42;;;8.13;;
42384;SDS011;28042;43.986;22.860;2022-10-31T03:15:33;12.68;;;7.68;;
42384;SDS011;28042;43.986;22.860;2022-10-31T03:18:05;15.18;;;7.07;;
42384;SDS011;28042;43.986;22.860;2022-10-31T03:20:42;18.80;;;8.57;;
42384;SDS011;28042;43.986;22.860;2022-10-31T03:23:16;17.40;;;8.38;;
42384;SDS011;28042;43.986;22.860;2022-10-31T03:25:44;13.68;;;8.15;;
42384;SDS011;28042;43.986;22.860;2022-10-31T03:28:12;16.08;;;8.02;;
42384;SDS011;28042;43.986;22.860;2022-10-31T03:30:41;17.35;;;8.18;;
42384;SDS011;28042;43.986;22.860;2022-10-31T03:33:10;17.35;;;8.75;;
42384;SDS011;28042;43.986;22.860;2022-10-31T03:35:41;20.65;;;9.02;;
42384;SDS011;28042;43.986;22.860;2022-10-31T03:38:10;17.70;;;8.23;;
42384;SDS011;28042;43.986;22.860;2022-10-31T03:40:36;17.13;;;8.43;;
42384;SDS011;28042;43.986;22.860;2022-10-31T03:43:07;20.00;;;9.50;;
42384;SDS011;28042;43.986;22.860;2022-10-31T03:45:44;22.85;;;9.70;;
42384;SDS011;28042;43.986;22.860;2022-10-31T03:48:12;21.38;;;9.48;;
42384;SDS011;28042;43.986;22.860;2022-10-31T03:50:47;25.67;;;10.90;;
42384;SDS011;28042;43.986;22.860;2022-10-31T03:53:16;30.65;;;10.45;;
42384;SDS011;28042;43.986;22.860;2022-10-31T03:55:49;18.83;;;10.73;;
42384;SDS011;28042;43.986;22.860;2022-10-31T03:58:20;22.00;;;11.43;;
42384;SDS011;28042;43.986;22.860;2022-10-31T04:00:49;16.08;;;9.55;;
42384;SDS011;28042;43.986;22.860;2022-10-31T04:03:26;18.40;;;10.25;;
42384;SDS011;28042;43.986;22.860;2022-10-31T04:05:56;18.27;;;10.75;;
42384;SDS011;28042;43.986;22.860;2022-10-31T04:08:26;20.42;;;10.57;;
42384;SDS011;28042;43.986;22.860;2022-10-31T04:10:55;20.50;;;10.73;;
42384;SDS011;28042;43.986;22.860;2022-10-31T04:13:24;18.30;;;9.73;;
42384;SDS011;28042;43.986;22.860;2022-10-31T04:15:53;23.88;;;10.63;;
42384;SDS011;28042;43.986;22.860;2022-10-31T04:20:47;18.80;;;9.95;;
42384;SDS011;28042;43.986;22.860;2022-10-31T04:23:19;17.42;;;9.95;;
42384;SDS011;28042;43.986;22.860;2022-10-31T04:25:47;16.10;;;9.25;;
42384;SDS011;28042;43.986;22.860;2022-10-31T04:28:12;24.45;;;11.57;;
42384;SDS011;28042;43.986;22.860;2022-10-31T04:30:38;18.25;;;9.48;;
42384;SDS011;28042;43.986;22.860;2022-10-31T04:33:03;21.67;;;10.07;;
42384;SDS011;28042;43.986;22.860;2022-10-31T04:35:29;19.83;;;10.77;;
42384;SDS011;28042;43.986;22.860;2022-10-31T04:37:54;22.50;;;10.35;;
42384;SDS011;28042;43.986;22.860;2022-10-31T04:40:20;22.13;;;9.95;;
42384;SDS011;28042;43.986;22.860;2022-10-31T04:42:45;22.75;;;10.55;;
42384;SDS011;28042;43.986;22.860;2022-10-31T04:45:31;18.13;;;8.98;;
42384;SDS011;28042;43.986;22.860;2022-10-31T04:47:56;25.83;;;10.88;;
42384;SDS011;28042;43.986;22.860;2022-10-31T04:50:22;32.80;;;10.82;;
42384;SDS011;28042;43.986;22.860;2022-10-31T04:52:47;23.95;;;10.90;;
42384;SDS011;28042;43.986;22.860;2022-10-31T04:55:13;28.40;;;10.05;;
42384;SDS011;28042;43.986;22.860;2022-10-31T04:57:42;19.77;;;9.95;;
42384;SDS011;28042;43.986;22.860;2022-10-31T05:00:08;29.42;;;9.55;;
42384;SDS011;28042;43.986;22.860;2022-10-31T05:02:34;23.27;;;11.02;;
42384;SDS011;28042;43.986;22.860;2022-10-31T05:04:59;77.75;;;14.60;;
42384;SDS011;28042;43.986;22.860;2022-10-31T05:07:25;67.60;;;12.75;;
42384;SDS011;28042;43.986;22.860;2022-10-31T05:09:50;79.32;;;15.30;;
42384;SDS011;28042;43.986;22.860;2022-10-31T05:12:16;57.72;;;13.07;;
42384;SDS011;28042;43.986;22.860;2022-10-31T05:14:42;66.75;;;13.80;;
42384;SDS011;28042;43.986;22.860;2022-10-31T05:17:07;61.20;;;13.88;;
42384;SDS011;28042;43.986;22.860;2022-10-31T05:19:33;32.58;;;14.00;;
42384;SDS011;28042;43.986;22.860;2022-10-31T05:21:58;71.88;;;15.20;;
42384;SDS011;28042;43.986;22.860;2022-10-31T05:24:24;76.38;;;15.32;;
42384;SDS011;28042;43.986;22.860;2022-10-31T05:26:49;57.20;;;14.75;;
42384;SDS011;28042;43.986;22.860;2022-10-31T05:29:15;44.38;;;14.60;;
42384;SDS011;28042;43.986;22.860;2022-10-31T05:31:40;35.22;;;14.23;;
42384;SDS011;28042;43.986;22.860;2022-10-31T05:34:05;33.17;;;12.25;;
42384;SDS011;28042;43.986;22.860;2022-10-31T05:36:31;41.42;;;13.05;;
42384;SDS011;28042;43.986;22.860;2022-10-31T05:38:56;32.72;;;12.60;;
42384;SDS011;28042;43.986;22.860;2022-10-31T05:41:22;29.85;;;11.52;;
42384;SDS011;28042;43.986;22.860;2022-10-31T05:43:47;46.13;;;13.55;;
42384;SDS011;28042;43.986;22.860;2022-10-31T05:46:13;58.17;;;14.52;;
42384;SDS011;28042;43.986;22.860;2022-10-31T05:48:38;91.50;;;15.15;;
42384;SDS011;28042;43.986;22.860;2022-10-31T05:51:04;41.45;;;13.82;;
42384;SDS011;28042;43.986;22.860;2022-10-31T05:53:29;46.15;;;14.60;;
42384;SDS011;28042;43.986;22.860;2022-10-31T05:55:55;47.88;;;14.60;;
42384;SDS011;28042;43.986;22.860;2022-10-31T05:58:20;62.60;;;17.52;;
42384;SDS011;28042;43.986;22.860;2022-10-31T06:00:46;61.47;;;18.20;;
42384;SDS011;28042;43.986;22.860;2022-10-31T06:03:11;61.70;;;19.00;;
42384;SDS011;28042;43.986;22.860;2022-10-31T06:05:37;81.07;;;19.45;;
42384;SDS011;28042;43.986;22.860;2022-10-31T06:08:02;66.75;;;19.63;;
42384;SDS011;28042;43.986;22.860;2022-10-31T06:10:28;90.22;;;19.63;;
42384;SDS011;28042;43.986;22.860;2022-10-31T06:12:53;93.28;;;20.05;;
42384;SDS011;28042;43.986;22.860;2022-10-31T06:15:19;95.38;;;19.63;;
42384;SDS011;28042;43.986;22.860;2022-10-31T06:17:44;89.95;;;20.67;;
42384;SDS011;28042;43.986;22.860;2022-10-31T06:20:10;90.88;;;20.40;;
42384;SDS011;28042;43.986;22.860;2022-10-31T06:22:36;98.78;;;21.10;;
42384;SDS011;28042;43.986;22.860;2022-10-31T06:25:01;80.18;;;20.17;;
42384;SDS011;28042;43.986;22.860;2022-10-31T06:27:27;79.35;;;17.52;;
42384;SDS011;28042;43.986;22.860;2022-10-31T06:29:53;36.03;;;12.07;;
42384;SDS011;28042;43.986;22.860;2022-10-31T06:32:18;41.45;;;13.45;;
42384;SDS011;28042;43.986;22.860;2022-10-31T06:34:44;54.92;;;16.25;;
42384;SDS011;28042;43.986;22.860;2022-10-31T06:37:12;59.20;;;15.70;;
42384;SDS011;28042;43.986;22.860;2022-10-31T06:39:38;61.08;;;14.90;;
42384;SDS011;28042;43.986;22.860;2022-10-31T06:42:03;64.63;;;13.55;;
42384;SDS011;28042;43.986;22.860;2022-10-31T06:44:29;45.13;;;12.38;;
42384;SDS011;28042;43.986;22.860;2022-10-31T06:46:55;47.03;;;13.32;;
42384;SDS011;28042;43.986;22.860;2022-10-31T06:49:21;52.20;;;14.07;;
42384;SDS011;28042;43.986;22.860;2022-10-31T06:51:47;52.75;;;13.85;;
42384;SDS011;28042;43.986;22.860;2022-10-31T06:54:13;40.75;;;14.68;;
42384;SDS011;28042;43.986;22.860;2022-10-31T06:56:39;33.20;;;12.48;;
42384;SDS011;28042;43.986;22.860;2022-10-31T06:59:05;43.92;;;15.30;;
42384;SDS011;28042;43.986;22.860;2022-10-31T07:01:30;45.60;;;14.70;;
42384;SDS011;28042;43.986;22.860;2022-10-31T07:03:55;44.33;;;16.20;;
42384;SDS011;28042;43.986;22.860;2022-10-31T07:06:21;31.02;;;16.23;;
42384;SDS011;28042;43.986;22.860;2022-10-31T07:08:46;45.13;;;16.83;;
42384;SDS011;28042;43.986;22.860;2022-10-31T07:11:12;42.38;;;14.00;;
42384;SDS011;28042;43.986;22.860;2022-10-31T07:13:38;49.33;;;16.20;;
42384;SDS011;28042;43.986;22.860;2022-10-31T07:16:04;37.83;;;13.68;;
42384;SDS011;28042;43.986;22.860;2022-10-31T07:18:31;36.03;;;12.30;;
42384;SDS011;28042;43.986;22.860;2022-10-31T07:20:58;28.48;;;10.30;;
42384;SDS011;28042;43.986;22.860;2022-10-31T07:23:23;84.85;;;13.43;;
42384;SDS011;28042;43.986;22.860;2022-10-31T07:25:53;38.40;;;11.10;;
42384;SDS011;28042;43.986;22.860;2022-10-31T07:28:23;28.45;;;9.77;;
42384;SDS011;28042;43.986;22.860;2022-10-31T07:30:50;23.70;;;8.95;;
42384;SDS011;28042;43.986;22.860;2022-10-31T07:33:17;29.10;;;8.13;;
42384;SDS011;28042;43.986;22.860;2022-10-31T07:35:42;26.38;;;8.38;;
42384;SDS011;28042;43.986;22.860;2022-10-31T07:38:09;22.30;;;8.45;;
42384;SDS011;28042;43.986;22.860;2022-10-31T07:43:01;43.63;;;10.65;;
42384;SDS011;28042;43.986;22.860;2022-10-31T07:45:27;16.45;;;9.52;;
42384;SDS011;28042;43.986;22.860;2022-10-31T07:47:52;22.67;;;10.52;;
42384;SDS011;28042;43.986;22.860;2022-10-31T07:50:19;20.88;;;9.13;;
42384;SDS011;28042;43.986;22.860;2022-10-31T07:52:46;21.52;;;8.75;;
42384;SDS011;28042;43.986;22.860;2022-10-31T07:55:12;19.58;;;7.43;;
42384;SDS011;28042;43.986;22.860;2022-10-31T07:57:38;16.92;;;6.57;;
42384;SDS011;28042;43.986;22.860;2022-10-31T08:00:05;20.75;;;6.88;;
42384;SDS011;28042;43.986;22.860;2022-10-31T08:04:57;22.63;;;6.13;;
42384;SDS011;28042;43.986;22.860;2022-10-31T08:07:24;22.55;;;6.63;;
42384;SDS011;28042;43.986;22.860;2022-10-31T08:09:50;29.95;;;6.00;;
42384;SDS011;28042;43.986;22.860;2022-10-31T08:12:16;10.85;;;5.20;;
42384;SDS011;28042;43.986;22.860;2022-10-31T08:14:41;14.70;;;5.10;;
42384;SDS011;28042;43.986;22.860;2022-10-31T08:17:07;13.43;;;5.57;;
42384;SDS011;28042;43.986;22.860;2022-10-31T08:19:32;13.27;;;6.38;;
42384;SDS011;28042;43.986;22.860;2022-10-31T08:21:57;20.50;;;6.25;;
42384;SDS011;28042;43.986;22.860;2022-10-31T08:24:23;15.43;;;6.20;;
42384;SDS011;28042;43.986;22.860;2022-10-31T08:26:49;14.88;;;5.40;;
42384;SDS011;28042;43.986;22.860;2022-10-31T08:29:15;22.08;;;5.70;;
42384;SDS011;28042;43.986;22.860;2022-10-31T08:31:41;11.77;;;5.28;;
42384;SDS011;28042;43.986;22.860;2022-10-31T08:34:07;18.83;;;6.18;;
42384;SDS011;28042;43.986;22.860;2022-10-31T08:36:32;24.40;;;7.00;;
42384;SDS011;28042;43.986;22.860;2022-10-31T08:38:58;23.55;;;5.72;;
42384;SDS011;28042;43.986;22.860;2022-10-31T08:41:24;12.07;;;4.95;;
42384;SDS011;28042;43.986;22.860;2022-10-31T08:43:49;13.23;;;5.78;;
42384;SDS011;28042;43.986;22.860;2022-10-31T08:46:15;14.10;;;6.70;;
42384;SDS011;28042;43.986;22.860;2022-10-31T08:48:41;17.30;;;6.95;;
42384;SDS011;28042;43.986;22.860;2022-10-31T08:51:06;9.55;;;5.43;;
42384;SDS011;28042;43.986;22.860;2022-10-31T08:53:33;23.77;;;6.43;;
42384;SDS011;28042;43.986;22.860;2022-10-31T08:55:59;9.90;;;4.80;;
42384;SDS011;28042;43.986;22.860;2022-10-31T08:58:24;24.83;;;7.32;;
42384;SDS011;28042;43.986;22.860;2022-10-31T09:00:53;10.32;;;4.28;;
42384;SDS011;28042;43.986;22.860;2022-10-31T09:03:20;13.98;;;5.40;;
42384;SDS011;28042;43.986;22.860;2022-10-31T09:05:46;11.70;;;5.20;;
42384;SDS011;28042;43.986;22.860;2022-10-31T09:08:12;9.57;;;4.80;;
42384;SDS011;28042;43.986;22.860;2022-10-31T09:10:39;13.15;;;5.70;;
42384;SDS011;28042;43.986;22.860;2022-10-31T09:13:09;23.00;;;5.22;;
42384;SDS011;28042;43.986;22.860;2022-10-31T09:15:37;9.02;;;4.43;;
42384;SDS011;28042;43.986;22.860;2022-10-31T09:18:07;10.30;;;4.88;;
42384;SDS011;28042;43.986;22.860;2022-10-31T09:20:34;15.45;;;4.90;;
42384;SDS011;28042;43.986;22.860;2022-10-31T09:25:27;14.63;;;4.47;;
42384;SDS011;28042;43.986;22.860;2022-10-31T09:27:57;20.48;;;5.65;;
42384;SDS011;28042;43.986;22.860;2022-10-31T09:30:23;9.55;;;4.38;;
42384;SDS011;28042;43.986;22.860;2022-10-31T09:32:59;10.23;;;4.87;;
42384;SDS011;28042;43.986;22.860;2022-10-31T09:35:26;13.27;;;4.18;;
42384;SDS011;28042;43.986;22.860;2022-10-31T09:38:02;10.88;;;4.18;;
42384;SDS011;28042;43.986;22.860;2022-10-31T09:40:39;15.80;;;4.47;;
42384;SDS011;28042;43.986;22.860;2022-10-31T09:45:36;10.02;;;4.65;;
42384;SDS011;28042;43.986;22.860;2022-10-31T09:50:42;7.07;;;4.10;;
42384;SDS011;28042;43.986;22.860;2022-10-31T09:53:19;30.48;;;5.20;;
42384;SDS011;28042;43.986;22.860;2022-10-31T09:55:56;15.05;;;4.93;;
42384;SDS011;28042;43.986;22.860;2022-10-31T09:58:24;81.93;;;8.15;;
42384;SDS011;28042;43.986;22.860;2022-10-31T10:00:56;41.10;;;5.72;;
42384;SDS011;28042;43.986;22.860;2022-10-31T10:03:44;14.77;;;4.53;;
42384;SDS011;28042;43.986;22.860;2022-10-31T10:06:19;35.25;;;6.50;;
42384;SDS011;28042;43.986;22.860;2022-10-31T10:08:48;10.30;;;3.92;;
42384;SDS011;28042;43.986;22.860;2022-10-31T10:11:32;10.48;;;4.50;;
42384;SDS011;28042;43.986;22.860;2022-10-31T10:30:13;16.55;;;5.20;;
42384;SDS011;28042;43.986;22.860;2022-10-31T10:32:55;11.32;;;4.10;;
42384;SDS011;28042;43.986;22.860;2022-10-31T10:40:48;14.73;;;3.83;;
42384;SDS011;28042;43.986;22.860;2022-10-31T10:48:45;37.45;;;7.00;;
42384;SDS011;28042;43.986;22.860;2022-10-31T10:51:26;14.27;;;3.80;;
42384;SDS011;28042;43.986;22.860;2022-10-31T10:54:13;9.95;;;4.20;;
42384;SDS011;28042;43.986;22.860;2022-10-31T10:59:32;14.05;;;4.10;;
42384;SDS011;28042;43.986;22.860;2022-10-31T11:01:57;8.40;;;4.22;;
42384;SDS011;28042;43.986;22.860;2022-10-31T11:04:25;13.30;;;4.43;;
42384;SDS011;28042;43.986;22.860;2022-10-31T11:09:50;13.23;;;4.72;;
42384;SDS011;28042;43.986;22.860;2022-10-31T11:12:19;9.13;;;4.07;;
42384;SDS011;28042;43.986;22.860;2022-10-31T11:14:55;41.72;;;5.78;;
42384;SDS011;28042;43.986;22.860;2022-10-31T11:17:30;11.55;;;4.38;;
42384;SDS011;28042;43.986;22.860;2022-10-31T11:22:28;12.60;;;4.13;;
42384;SDS011;28042;43.986;22.860;2022-10-31T11:24:53;12.70;;;4.38;;
42384;SDS011;28042;43.986;22.860;2022-10-31T11:27:20;8.38;;;3.90;;
42384;SDS011;28042;43.986;22.860;2022-10-31T11:29:48;13.82;;;4.60;;
42384;SDS011;28042;43.986;22.860;2022-10-31T11:32:21;8.98;;;4.30;;
42384;SDS011;28042;43.986;22.860;2022-10-31T11:34:56;15.35;;;4.65;;
42384;SDS011;28042;43.986;22.860;2022-10-31T11:37:25;12.40;;;5.07;;
42384;SDS011;28042;43.986;22.860;2022-10-31T11:39:55;10.60;;;4.88;;
42384;SDS011;28042;43.986;22.860;2022-10-31T11:42:38;9.88;;;4.60;;
42384;SDS011;28042;43.986;22.860;2022-10-31T11:45:06;10.82;;;4.40;;
42384;SDS011;28042;43.986;22.860;2022-10-31T11:47:40;11.57;;;4.57;;
42384;SDS011;28042;43.986;22.860;2022-10-31T11:50:09;10.70;;;4.13;;
42384;SDS011;28042;43.986;22.860;2022-10-31T11:52:37;12.63;;;4.68;;
42384;SDS011;28042;43.986;22.860;2022-10-31T11:57:47;16.20;;;4.60;;
42384;SDS011;28042;43.986;22.860;2022-10-31T12:00:30;10.82;;;4.20;;
42384;SDS011;28042;43.986;22.860;2022-10-31T12:06:05;14.18;;;4.72;;
42384;SDS011;28042;43.986;22.860;2022-10-31T12:08:43;9.68;;;3.95;;
42384;SDS011;28042;43.986;22.860;2022-10-31T12:52:22;11.60;;;3.78;;
42384;SDS011;28042;43.986;22.860;2022-10-31T12:57:40;36.60;;;5.03;;
42384;SDS011;28042;43.986;22.860;2022-10-31T13:00:13;14.77;;;4.32;;
42384;SDS011;28042;43.986;22.860;2022-10-31T13:02:47;9.30;;;3.20;;
42384;SDS011;28042;43.986;22.860;2022-10-31T13:05:22;13.40;;;3.60;;
42384;SDS011;28042;43.986;22.860;2022-10-31T13:16:44;10.48;;;3.10;;
42384;SDS011;28042;43.986;22.860;2022-10-31T13:22:18;11.68;;;3.72;;
42384;SDS011;28042;43.986;22.860;2022-10-31T13:27:23;10.35;;;3.80;;
42384;SDS011;28042;43.986;22.860;2022-10-31T13:32:43;9.60;;;3.70;;
42384;SDS011;28042;43.986;22.860;2022-10-31T13:35:20;30.58;;;5.18;;
42384;SDS011;28042;43.986;22.860;2022-10-31T13:46:41;18.40;;;4.53;;
42384;SDS011;28042;43.986;22.860;2022-10-31T13:57:17;14.57;;;4.68;;
42384;SDS011;28042;43.986;22.860;2022-10-31T13:59:54;27.65;;;5.28;;
42384;SDS011;28042;43.986;22.860;2022-10-31T14:02:26;262.08;;;22.40;;
42384;SDS011;28042;43.986;22.860;2022-10-31T14:05:01;123.82;;;14.88;;
42384;SDS011;28042;43.986;22.860;2022-10-31T14:07:32;33.92;;;7.35;;
42384;SDS011;28042;43.986;22.860;2022-10-31T14:10:05;28.67;;;5.72;;
42384;SDS011;28042;43.986;22.860;2022-10-31T14:12:45;158.15;;;14.95;;
42384;SDS011;28042;43.986;22.860;2022-10-31T14:15:25;29.00;;;6.20;;
42384;SDS011;28042;43.986;22.860;2022-10-31T14:18:19;45.58;;;10.45;;
42384;SDS011;28042;43.986;22.860;2022-10-31T14:21:26;47.15;;;7.35;;
42384;SDS011;28042;43.986;22.860;2022-10-31T14:23:55;23.73;;;6.13;;
42384;SDS011;28042;43.986;22.860;2022-10-31T14:28:57;22.83;;;5.75;;
42384;SDS011;28042;43.986;22.860;2022-10-31T14:31:40;26.40;;;5.75;;
42384;SDS011;28042;43.986;22.860;2022-10-31T14:39:30;57.17;;;8.15;;
42384;SDS011;28042;43.986;22.860;2022-10-31T14:50:59;39.00;;;8.00;;
42384;SDS011;28042;43.986;22.860;2022-10-31T14:58:51;128.45;;;16.60;;
42384;SDS011;28042;43.986;22.860;2022-10-31T15:03:55;133.55;;;14.95;;
42384;SDS011;28042;43.986;22.860;2022-10-31T15:06:40;120.30;;;15.38;;
42384;SDS011;28042;43.986;22.860;2022-10-31T15:11:47;106.88;;;14.98;;
42384;SDS011;28042;43.986;22.860;2022-10-31T15:14:31;127.18;;;17.83;;
42384;SDS011;28042;43.986;22.860;2022-10-31T15:16:57;134.93;;;21.08;;
42384;SDS011;28042;43.986;22.860;2022-10-31T15:21:54;161.50;;;21.27;;
42384;SDS011;28042;43.986;22.860;2022-10-31T15:24:22;85.88;;;15.45;;
42384;SDS011;28042;43.986;22.860;2022-10-31T15:26:52;120.25;;;19.33;;
42384;SDS011;28042;43.986;22.860;2022-10-31T15:29:21;59.42;;;12.20;;
42384;SDS011;28042;43.986;22.860;2022-10-31T15:31:49;51.63;;;12.20;;
42384;SDS011;28042;43.986;22.860;2022-10-31T15:34:20;95.47;;;17.83;;
42384;SDS011;28042;43.986;22.860;2022-10-31T15:36:53;71.95;;;14.48;;
42384;SDS011;28042;43.986;22.860;2022-10-31T15:39:18;98.35;;;15.63;;
42384;SDS011;28042;43.986;22.860;2022-10-31T15:41:50;93.93;;;16.02;;
42384;SDS011;28042;43.986;22.860;2022-10-31T15:46:59;98.70;;;16.08;;
42384;SDS011;28042;43.986;22.860;2022-10-31T15:52:05;132.75;;;18.60;;
42384;SDS011;28042;43.986;22.860;2022-10-31T15:54:55;132.07;;;18.05;;
42384;SDS011;28042;43.986;22.860;2022-10-31T15:57:26;99.90;;;18.92;;
42384;SDS011;28042;43.986;22.860;2022-10-31T15:59:52;95.50;;;16.52;;
42384;SDS011;28042;43.986;22.860;2022-10-31T16:02:25;101.38;;;18.35;;
42384;SDS011;28042;43.986;22.860;2022-10-31T16:04:59;86.22;;;16.85;;
42384;SDS011;28042;43.986;22.860;2022-10-31T16:07:26;107.93;;;17.52;;
42384;SDS011;28042;43.986;22.860;2022-10-31T16:09:55;110.85;;;18.13;;
42384;SDS011;28042;43.986;22.860;2022-10-31T16:12:34;107.03;;;17.90;;
42384;SDS011;28042;43.986;22.860;2022-10-31T16:15:03;82.18;;;16.48;;
42384;SDS011;28042;43.986;22.860;2022-10-31T16:17:30;84.25;;;16.02;;
42384;SDS011;28042;43.986;22.860;2022-10-31T16:19:58;60.80;;;14.23;;
42384;SDS011;28042;43.986;22.860;2022-10-31T16:22:29;59.63;;;14.57;;
42384;SDS011;28042;43.986;22.860;2022-10-31T16:25:24;45.58;;;14.85;;
42384;SDS011;28042;43.986;22.860;2022-10-31T16:27:54;41.65;;;15.50;;
42384;SDS011;28042;43.986;22.860;2022-10-31T16:30:41;100.32;;;18.55;;
42384;SDS011;28042;43.986;22.860;2022-10-31T16:33:25;96.90;;;17.95;;
42384;SDS011;28042;43.986;22.860;2022-10-31T16:35:59;92.13;;;19.27;;
42384;SDS011;28042;43.986;22.860;2022-10-31T16:38:27;60.40;;;18.83;;
42384;SDS011;28042;43.986;22.860;2022-10-31T16:41:12;65.22;;;17.75;;
42384;SDS011;28042;43.986;22.860;2022-10-31T16:43:38;64.07;;;17.00;;
42384;SDS011;28042;43.986;22.860;2022-10-31T16:46:03;58.92;;;17.08;;
42384;SDS011;28042;43.986;22.860;2022-10-31T16:48:29;55.90;;;16.70;;
42384;SDS011;28042;43.986;22.860;2022-10-31T16:50:54;59.28;;;16.88;;
42384;SDS011;28042;43.986;22.860;2022-10-31T16:53:20;64.25;;;17.55;;
42384;SDS011;28042;43.986;22.860;2022-10-31T16:55:54;52.97;;;15.73;;
42384;SDS011;28042;43.986;22.860;2022-10-31T16:58:23;46.42;;;15.82;;
42384;SDS011;28042;43.986;22.860;2022-10-31T17:00:51;45.78;;;17.50;;
42384;SDS011;28042;43.986;22.860;2022-10-31T17:03:17;47.10;;;19.40;;
42384;SDS011;28042;43.986;22.860;2022-10-31T17:05:43;44.20;;;19.63;;
42384;SDS011;28042;43.986;22.860;2022-10-31T17:08:09;40.00;;;18.15;;
42384;SDS011;28042;43.986;22.860;2022-10-31T17:10:35;36.65;;;18.50;;
42384;SDS011;28042;43.986;22.860;2022-10-31T17:13:02;42.90;;;19.85;;
42384;SDS011;28042;43.986;22.860;2022-10-31T17:15:35;100.43;;;23.40;;
42384;SDS011;28042;43.986;22.860;2022-10-31T17:18:10;108.05;;;24.15;;
42384;SDS011;28042;43.986;22.860;2022-10-31T17:20:37;72.47;;;19.67;;
42384;SDS011;28042;43.986;22.860;2022-10-31T17:23:04;77.68;;;21.73;;
42384;SDS011;28042;43.986;22.860;2022-10-31T17:25:31;34.17;;;15.48;;
42384;SDS011;28042;43.986;22.860;2022-10-31T17:27:57;41.07;;;16.07;;
42384;SDS011;28042;43.986;22.860;2022-10-31T17:30:23;40.90;;;13.95;;
42384;SDS011;28042;43.986;22.860;2022-10-31T17:32:49;42.25;;;14.73;;
42384;SDS011;28042;43.986;22.860;2022-10-31T17:35:15;51.33;;;14.75;;
42384;SDS011;28042;43.986;22.860;2022-10-31T17:37:42;37.33;;;13.20;;
42384;SDS011;28042;43.986;22.860;2022-10-31T17:40:10;33.80;;;12.60;;
42384;SDS011;28042;43.986;22.860;2022-10-31T17:42:40;37.67;;;13.25;;